createdAt,value
2019-05-10T00:00:23.100Z,96986.02
2019-05-10T00:03:12.007Z,96992.91
2019-05-10T00:06:00.964Z,96993.00
2019-05-10T00:08:46.907Z,96992.71
2019-05-10T00:11:22.049Z,96992.71
2019-05-10T00:14:10.953Z,96987.69
2019-05-10T00:16:42.252Z,96997.19
2019-05-10T00:19:13.222Z,96992.60
2019-05-10T00:21:44.423Z,97006.57
2019-05-10T00:24:15.391Z,97001.64
2019-05-10T00:26:45.570Z,97000.71
2019-05-10T00:29:16.741Z,97006.21
2019-05-10T00:31:47.697Z,97007.98
2019-05-10T00:34:18.784Z,97018.31
2019-05-10T00:36:49.680Z,97024.11
2019-05-10T00:39:20.805Z,97025.42
2019-05-10T00:41:52.015Z,97004.55
2019-05-10T00:44:23.073Z,97019.55
2019-05-10T00:46:54.046Z,97021.02
2019-05-10T00:49:25.229Z,97035.13
2019-05-10T00:51:56.139Z,97028.34
2019-05-10T00:54:27.395Z,97038.86
2019-05-10T00:56:58.293Z,97036.05
2019-05-10T00:59:28.474Z,97039.41
2019-05-10T01:01:59.722Z,97038.48
2019-05-10T01:04:30.587Z,97041.47
2019-05-10T01:07:01.728Z,97040.34
2019-05-10T01:09:32.620Z,97046.30
2019-05-10T01:12:03.767Z,97038.28
2019-05-10T01:14:34.820Z,97045.55
2019-05-10T01:17:06.091Z,97045.26
2019-05-10T01:19:37.037Z,97055.42
2019-05-10T01:22:08.290Z,97058.20
2019-05-10T01:24:39.243Z,97062.20
2019-05-10T01:27:10.513Z,97065.09
2019-05-10T01:29:41.480Z,97073.84
2019-05-10T01:32:11.680Z,97077.75
2019-05-10T01:34:42.745Z,97076.91
2019-05-10T01:37:13.897Z,97084.81
2019-05-10T01:39:45.018Z,97085.55
2019-05-10T01:42:16.011Z,97086.94
2019-05-10T01:44:47.322Z,97090.69
2019-05-10T01:47:18.250Z,97091.91
2019-05-10T01:49:49.372Z,97090.39
2019-05-10T01:52:20.256Z,97091.23
2019-05-10T01:54:51.443Z,97099.72
2019-05-10T01:57:22.398Z,97101.37
2019-05-10T01:59:53.482Z,97097.45
2019-05-10T02:02:24.448Z,97105.63
2019-05-10T02:04:54.578Z,97110.15
2019-05-10T02:07:25.690Z,97118.49
2019-05-10T02:09:56.595Z,97116.52
2019-05-10T02:12:27.714Z,97120.48
2019-05-10T02:14:58.634Z,97123.87
2019-05-10T02:17:29.816Z,97123.65
2019-05-10T02:20:00.807Z,97130.38
2019-05-10T02:22:32.040Z,97136.50
2019-05-10T02:25:02.992Z,97132.59
2019-05-10T02:27:34.086Z,97144.39
2019-05-10T02:30:06.629Z,97143.09
2019-05-10T02:32:37.735Z,97142.09
2019-05-10T02:35:09.007Z,97154.64
2019-05-10T02:37:40.795Z,97155.72
2019-05-10T02:40:11.950Z,97156.64
2019-05-10T02:42:41.975Z,97165.75
2019-05-10T02:45:13.178Z,97167.98
2019-05-10T02:47:44.171Z,97168.63
2019-05-10T02:50:15.418Z,97169.62
2019-05-10T02:52:46.404Z,97173.15
2019-05-10T02:55:17.618Z,97173.15
2019-05-10T02:57:48.979Z,97171.84
2019-05-10T03:00:20.359Z,97183.83
2019-05-10T03:02:52.694Z,97181.18
2019-05-10T03:05:27.063Z,97176.52
2019-05-10T03:07:58.997Z,97180.83
2019-05-10T03:10:32.581Z,97180.41
2019-05-10T03:13:04.238Z,97181.86
2019-05-10T03:15:36.663Z,97182.77
2019-05-10T03:18:07.800Z,97192.19
2019-05-10T03:20:38.738Z,97195.63
2019-05-10T03:23:10.891Z,97194.41
2019-05-10T03:25:41.766Z,97197.77
2019-05-10T03:28:12.928Z,97195.94
2019-05-10T03:30:43.873Z,97188.13
2019-05-10T03:33:15.226Z,97198.16
2019-05-10T03:35:46.653Z,97199.00
2019-05-10T03:38:17.848Z,97205.24
2019-05-10T03:40:48.740Z,97212.13
2019-05-10T03:43:19.911Z,97205.70
2019-05-10T03:45:50.863Z,97210.98
2019-05-10T03:48:21.078Z,97208.84
2019-05-10T03:50:52.219Z,97212.66
2019-05-10T03:53:23.210Z,97221.39
2019-05-10T03:55:54.334Z,97220.86
2019-05-10T03:58:25.502Z,97227.20
2019-05-10T04:00:56.576Z,97225.38
2019-05-10T04:03:27.572Z,97225.65
2019-05-10T04:05:58.663Z,97227.72
2019-05-10T04:08:29.562Z,97233.23
2019-05-10T04:11:00.867Z,97228.41
2019-05-10T04:13:31.894Z,97233.81
2019-05-10T04:16:03.183Z,97227.22
2019-05-10T04:18:34.207Z,97229.75
2019-05-10T04:21:06.727Z,97229.64
2019-05-10T04:23:37.724Z,97236.08
2019-05-10T04:26:07.850Z,97230.25
2019-05-10T04:28:39.042Z,97229.61
2019-05-10T04:31:09.892Z,97229.16
2019-05-10T04:33:44.120Z,97236.73
2019-05-10T04:36:15.189Z,97238.69
2019-05-10T04:38:49.187Z,97244.27
2019-05-10T04:41:20.261Z,97238.02
2019-05-10T04:43:51.567Z,97236.38
2019-05-10T04:46:24.337Z,97238.45
2019-05-10T04:48:55.415Z,97242.27
2019-05-10T04:51:26.357Z,97251.42
2019-05-10T04:53:57.680Z,97250.70
2019-05-10T04:56:33.175Z,97255.75
2019-05-10T04:59:06.332Z,97259.31
2019-05-10T05:01:41.930Z,97261.64
2019-05-10T05:04:12.182Z,97267.70
2019-05-10T05:06:43.232Z,97272.91
2019-05-10T05:09:14.137Z,97278.50
2019-05-10T05:11:45.361Z,97274.63
2019-05-10T05:14:16.344Z,97264.99
2019-05-10T05:16:47.489Z,97273.11
2019-05-10T05:19:18.416Z,97275.44
2019-05-10T05:21:49.590Z,97288.34
2019-05-10T05:24:22.906Z,97277.45
2019-05-10T05:26:53.354Z,97287.50
2019-05-10T05:29:24.374Z,97283.61
2019-05-10T05:32:05.862Z,97285.84
2019-05-10T05:34:40.703Z,97293.14
2019-05-10T05:37:10.827Z,97300.88
2019-05-10T05:39:41.960Z,97298.57
2019-05-10T05:42:13.007Z,97301.34
2019-05-10T05:44:44.515Z,97299.80
2019-05-10T05:47:15.777Z,97292.17
2019-05-10T05:49:46.906Z,97295.66
2019-05-10T05:52:17.831Z,97300.70
2019-05-10T05:54:52.861Z,97301.27
2019-05-10T05:57:22.138Z,97302.17
2019-05-10T05:59:57.619Z,97309.38
2019-05-10T06:02:27.313Z,97311.98
2019-05-10T06:04:58.468Z,97312.43
2019-05-10T06:07:31.256Z,97317.84
2019-05-10T06:10:02.891Z,97320.35
2019-05-10T06:12:33.934Z,97325.05
2019-05-10T06:15:04.826Z,97330.61
2019-05-10T06:17:35.926Z,97329.59
2019-05-10T06:20:08.578Z,97333.11
2019-05-10T06:22:44.003Z,97336.19
2019-05-10T06:25:12.465Z,97334.50
2019-05-10T06:27:44.861Z,97342.34
2019-05-10T06:30:16.040Z,97348.38
2019-05-10T06:32:47.224Z,97337.95
2019-05-10T06:35:19.420Z,97358.66
2019-05-10T06:37:51.134Z,97363.66
2019-05-10T06:40:32.446Z,97354.94
2019-05-10T06:42:55.434Z,97356.53
2019-05-10T06:45:26.480Z,97350.75
2019-05-10T06:47:56.510Z,97371.52
2019-05-10T06:50:29.950Z,97364.42
2019-05-10T06:53:06.655Z,97348.34
2019-05-10T06:55:33.185Z,97362.11
2019-05-10T06:58:04.456Z,97363.42
2019-05-10T07:00:37.910Z,97356.87
2019-05-10T07:03:08.178Z,97363.41
2019-05-10T07:05:39.238Z,97360.23
2019-05-10T07:08:17.558Z,97372.58
2019-05-10T07:10:43.152Z,97375.26
2019-05-10T07:13:14.064Z,97361.34
2019-05-10T07:15:45.378Z,97356.45
2019-05-10T07:18:22.554Z,97378.33
2019-05-10T07:20:49.382Z,97366.53
2019-05-10T07:23:20.289Z,97367.39
2019-05-10T07:25:50.418Z,97367.53
2019-05-10T07:28:21.747Z,97370.03
2019-05-10T07:30:52.636Z,97366.20
2019-05-10T07:33:23.770Z,97374.93
2019-05-10T07:35:54.717Z,97363.19
2019-05-10T07:38:31.051Z,97372.16
2019-05-10T07:40:58.513Z,97370.89
2019-05-10T07:43:29.763Z,97372.08
2019-05-10T07:46:06.224Z,97380.32
2019-05-10T07:48:33.420Z,97382.44
2019-05-10T07:51:04.459Z,97389.55
2019-05-10T07:53:35.596Z,97386.10
2019-05-10T07:56:08.013Z,97392.63
2019-05-10T07:58:43.331Z,97385.83
2019-05-10T08:01:11.197Z,97397.47
2019-05-10T08:03:48.213Z,97393.31
2019-05-10T08:06:15.623Z,97398.33
2019-05-10T08:08:49.484Z,97412.30
2019-05-10T08:11:19.868Z,97398.11
2019-05-10T08:13:51.864Z,97400.31
2019-05-10T08:16:26.476Z,97405.62
2019-05-10T08:19:01.046Z,97420.73
2019-05-10T08:21:32.234Z,97397.81
2019-05-10T08:24:05.138Z,97408.11
2019-05-10T08:26:36.193Z,97415.46
2019-05-10T08:29:12.310Z,97408.09
2019-05-10T08:31:50.436Z,97423.88
2019-05-10T08:34:13.725Z,97418.47
2019-05-10T08:36:47.580Z,97422.25
2019-05-10T08:39:16.689Z,97409.51
2019-05-10T08:42:01.335Z,97412.94
2019-05-10T08:44:21.784Z,97415.49
2019-05-10T08:46:53.171Z,97417.48
2019-05-10T08:49:31.024Z,97411.36
2019-05-10T08:51:56.916Z,97409.45
2019-05-10T08:54:28.071Z,97409.08
2019-05-10T08:57:01.065Z,97427.75
2019-05-10T08:59:33.827Z,97406.56
2019-05-10T09:02:04.644Z,97417.45
2019-05-10T09:04:43.630Z,97426.61
2019-05-10T09:07:08.391Z,97416.61
2019-05-10T09:09:49.725Z,97423.86
2019-05-10T09:12:15.669Z,97422.17
2019-05-10T09:14:48.613Z,97433.98
2019-05-10T09:17:23.541Z,97436.88
2019-05-10T09:19:51.885Z,97428.53
2019-05-10T09:22:24.086Z,97443.13
2019-05-10T09:24:55.812Z,97432.20
2019-05-10T09:27:29.133Z,97442.66
2019-05-10T09:29:59.694Z,97439.00
2019-05-10T09:32:33.402Z,97442.42
2019-05-10T09:35:07.672Z,97443.06
2019-05-10T09:37:36.718Z,97431.58
2019-05-10T09:40:09.946Z,97427.11
2019-05-10T09:42:43.619Z,97427.80
2019-05-10T09:45:13.901Z,97439.86
2019-05-10T09:47:44.077Z,97425.94
2019-05-10T09:50:15.801Z,97433.80
2019-05-10T09:52:46.806Z,97430.02
2019-05-10T09:55:18.118Z,97415.52
2019-05-10T09:57:49.017Z,97431.86
2019-05-10T10:00:23.098Z,97438.02
2019-05-10T10:03:01.614Z,97428.47
2019-05-10T10:05:31.011Z,97440.06
2019-05-10T10:08:03.569Z,97448.52
2019-05-10T10:10:37.185Z,97440.66
2019-05-10T10:13:13.253Z,97441.28
2019-05-10T10:15:40.429Z,97441.72
2019-05-10T10:18:12.715Z,97447.49
2019-05-10T10:20:45.437Z,97435.04
2019-05-10T10:23:17.379Z,97442.81
2019-05-10T10:25:48.380Z,97437.33
2019-05-10T10:28:22.543Z,97439.00
2019-05-10T10:30:59.068Z,97435.41
2019-05-10T10:33:28.125Z,97442.52
2019-05-10T10:36:04.969Z,97442.54
2019-05-10T10:38:31.411Z,97434.19
2019-05-10T10:41:02.602Z,97434.77
2019-05-10T10:43:33.786Z,97433.55
2019-05-10T10:46:11.900Z,97452.11
2019-05-10T10:48:37.634Z,97438.99
2019-05-10T10:51:08.572Z,97445.09
2019-05-10T10:53:39.821Z,97440.77
2019-05-10T10:56:10.725Z,97425.77
2019-05-10T10:58:42.035Z,97445.45
2019-05-10T11:01:23.610Z,97438.98
2019-05-10T11:03:44.669Z,97437.52
2019-05-10T11:06:15.873Z,97439.83
2019-05-10T11:08:46.835Z,97431.30
2019-05-10T11:11:17.971Z,97440.58
2019-05-10T11:13:57.800Z,97429.84
2019-05-10T11:16:22.020Z,97429.73
2019-05-10T11:18:54.665Z,97435.11
2019-05-10T11:21:28.791Z,97426.11
2019-05-10T11:24:01.261Z,97435.25
2019-05-10T11:26:34.957Z,97434.06
2019-05-10T11:29:04.340Z,97443.81
2019-05-10T11:31:35.596Z,97446.11
2019-05-10T11:34:06.701Z,97440.08
2019-05-10T11:36:40.447Z,97435.59
2019-05-10T11:39:25.668Z,97429.23
2019-05-10T11:41:45.248Z,97439.73
2019-05-10T11:44:17.982Z,97432.83
2019-05-10T11:46:50.774Z,97439.45
2019-05-10T11:49:22.052Z,97438.45
2019-05-10T11:51:54.936Z,97436.61
2019-05-10T11:54:25.833Z,97454.80
2019-05-10T11:56:58.425Z,97438.48
2019-05-10T11:59:33.730Z,97451.90
2019-05-10T12:02:09.005Z,97460.59
2019-05-10T12:04:39.374Z,97451.02
2019-05-10T12:07:13.040Z,97451.14
2019-05-10T12:09:44.424Z,97440.16
2019-05-10T12:12:15.404Z,97431.27
2019-05-10T12:14:46.874Z,97431.19
2019-05-10T12:17:18.141Z,97433.75
2019-05-10T12:19:55.482Z,97429.12
2019-05-10T12:22:32.124Z,97432.11
2019-05-10T12:25:27.237Z,97441.77
2019-05-10T12:27:44.247Z,97431.33
2019-05-10T12:30:11.670Z,97446.23
2019-05-10T12:32:55.695Z,97436.56
2019-05-10T12:35:15.747Z,97433.98
2019-05-10T12:37:53.131Z,97416.69
2019-05-10T12:40:19.728Z,97416.69
2019-05-10T12:42:50.920Z,97432.18
2019-05-10T12:45:23.349Z,97436.37
2019-05-10T12:47:54.616Z,97440.99
2019-05-10T12:50:25.636Z,97438.05
2019-05-10T12:53:14.200Z,97436.88
2019-05-10T12:55:29.457Z,97441.61
2019-05-10T12:58:01.401Z,97442.88
2019-05-10T13:00:32.752Z,97448.03
2019-05-10T13:03:12.085Z,97453.30
2019-05-10T13:05:51.319Z,97461.36
2019-05-10T13:08:09.168Z,97464.96
2019-05-10T13:10:43.262Z,97458.02
2019-05-10T13:13:17.652Z,97464.70
2019-05-10T13:15:46.472Z,97463.52
2019-05-10T13:18:17.453Z,97471.30
2019-05-10T13:20:48.691Z,97474.77
2019-05-10T13:23:19.616Z,97483.40
2019-05-10T13:25:50.678Z,97490.62
2019-05-10T13:28:21.786Z,97478.09
2019-05-10T13:30:52.071Z,97491.54
2019-05-10T13:33:29.144Z,97493.02
2019-05-10T13:35:57.045Z,97492.67
2019-05-10T13:38:28.988Z,97495.69
2019-05-10T13:41:02.747Z,97493.83
2019-05-10T13:43:34.059Z,97497.50
2019-05-10T13:46:05.101Z,97504.89
2019-05-10T13:48:36.344Z,97500.66
2019-05-10T13:51:07.359Z,97492.77
2019-05-10T13:53:38.740Z,97494.18
2019-05-10T13:56:09.623Z,97499.76
2019-05-10T13:58:40.735Z,97498.43
2019-05-10T14:01:13.169Z,97498.14
2019-05-10T14:03:48.726Z,97498.33
2019-05-10T14:06:17.238Z,97486.02
2019-05-10T14:08:48.184Z,97482.70
2019-05-10T14:11:20.065Z,97476.93
2019-05-10T14:13:51.112Z,97479.52
2019-05-10T14:16:22.724Z,97492.64
2019-05-10T14:19:09.822Z,97476.36
2019-05-10T14:21:40.199Z,97475.20
2019-05-10T14:24:15.281Z,97457.87
2019-05-10T14:26:44.050Z,97478.80
2019-05-10T14:29:14.997Z,97457.14
2019-05-10T14:31:46.248Z,97462.20
2019-05-10T14:34:17.144Z,97473.52
2019-05-10T14:36:48.419Z,97478.66
2019-05-10T14:39:19.406Z,97458.49
2019-05-10T14:41:52.412Z,97471.63
2019-05-10T14:44:23.613Z,97482.64
2019-05-10T14:46:53.628Z,97489.47
2019-05-10T14:49:24.936Z,97494.21
2019-05-10T14:51:59.424Z,97482.16
2019-05-10T14:54:42.681Z,97489.05
2019-05-10T14:57:01.466Z,97486.10
2019-05-10T14:59:32.702Z,97492.44
2019-05-10T15:02:03.679Z,97481.37
2019-05-10T15:04:50.253Z,97484.69
2019-05-10T15:07:08.715Z,97480.83
2019-05-10T15:09:40.307Z,97478.36
2019-05-10T15:12:16.445Z,97491.55
2019-05-10T15:14:44.173Z,97496.52
2019-05-10T15:17:15.081Z,97511.44
2019-05-10T15:19:55.798Z,97493.72
2019-05-10T15:22:22.889Z,97500.39
2019-05-10T15:24:49.836Z,97495.08
2019-05-10T15:27:22.062Z,97495.62
2019-05-10T15:29:58.495Z,97493.83
2019-05-10T15:32:26.578Z,97496.25
2019-05-10T15:35:06.500Z,97508.25
2019-05-10T15:37:30.297Z,97510.91
2019-05-10T15:40:06.100Z,97503.60
2019-05-10T15:42:36.076Z,97501.44
2019-05-10T15:45:12.378Z,97503.56
2019-05-10T15:47:51.345Z,97506.80
2019-05-10T15:50:16.862Z,97504.65
2019-05-10T15:52:48.780Z,97502.74
2019-05-10T15:55:26.792Z,97506.24
2019-05-10T15:57:57.756Z,97508.97
2019-05-10T16:00:31.492Z,97511.45
2019-05-10T16:02:57.487Z,97512.07
2019-05-10T16:05:42.519Z,97515.06
2019-05-10T16:08:01.140Z,97528.55
2019-05-10T16:10:38.812Z,97529.98
2019-05-10T16:13:05.107Z,97531.01
2019-05-10T16:15:38.190Z,97530.85
2019-05-10T16:18:12.127Z,97524.98
2019-05-10T16:20:43.468Z,97515.66
2019-05-10T16:23:17.486Z,97530.31
2019-05-10T16:25:51.472Z,97533.00
2019-05-10T16:28:22.981Z,97532.84
2019-05-10T16:30:54.294Z,97525.69
2019-05-10T16:33:25.236Z,97528.52
2019-05-10T16:35:55.431Z,97530.83
2019-05-10T16:38:26.582Z,97525.23
2019-05-10T16:41:00.200Z,97524.59
2019-05-10T16:43:30.342Z,97520.09
2019-05-10T16:46:01.277Z,97521.59
2019-05-10T16:48:32.487Z,97535.38
2019-05-10T16:51:09.099Z,97541.84
2019-05-10T16:53:37.814Z,97542.97
2019-05-10T16:56:13.430Z,97546.19
2019-05-10T16:58:41.841Z,97546.75
2019-05-10T17:01:12.735Z,97554.16
2019-05-10T17:03:43.796Z,97546.66
2019-05-10T17:06:14.696Z,97545.34
2019-05-10T17:08:48.689Z,97544.97
2019-05-10T17:11:21.197Z,97557.39
2019-05-10T17:13:55.708Z,97548.81
2019-05-10T17:16:30.063Z,97556.42
2019-05-10T17:19:06.456Z,97545.47
2019-05-10T17:21:39.070Z,97549.88
2019-05-10T17:24:12.895Z,97544.91
2019-05-10T17:26:45.725Z,97548.27
2019-05-10T17:29:16.750Z,97549.52
2019-05-10T17:31:49.693Z,97549.95
2019-05-10T17:34:29.445Z,97551.67
2019-05-10T17:36:59.789Z,97554.47
2019-05-10T17:39:32.001Z,97561.80
2019-05-10T17:42:05.028Z,97560.44
2019-05-10T17:44:36.196Z,97559.80
2019-05-10T17:47:07.997Z,97561.17
2019-05-10T17:49:38.932Z,97556.45
2019-05-10T17:52:09.079Z,97560.98
2019-05-10T17:54:40.993Z,97555.73
2019-05-10T17:57:16.791Z,97555.14
2019-05-10T17:59:46.841Z,97546.28
2019-05-10T18:02:19.161Z,97544.03
2019-05-10T18:04:50.388Z,97546.48
2019-05-10T18:07:22.862Z,97547.80
2019-05-10T18:09:55.553Z,97545.72
2019-05-10T18:12:27.333Z,97542.77
2019-05-10T18:14:58.816Z,97541.51
2019-05-10T18:17:29.705Z,97544.43
2019-05-10T18:20:02.226Z,97543.03
2019-05-10T18:22:42.231Z,97550.80
2019-05-10T18:25:07.410Z,97549.53
2019-05-10T18:27:38.339Z,97545.36
2019-05-10T18:30:09.036Z,97554.09
2019-05-10T18:32:40.165Z,97562.44
2019-05-10T18:35:14.808Z,97560.31
2019-05-10T18:37:44.472Z,97556.97
2019-05-10T18:40:25.103Z,97561.77
2019-05-10T18:43:04.131Z,97566.46
2019-05-10T18:45:39.089Z,97572.81
2019-05-10T18:48:15.941Z,97567.97
2019-05-10T18:50:47.552Z,97558.91
2019-05-10T18:53:20.768Z,97562.57
2019-05-10T18:55:53.221Z,97562.64
2019-05-10T19:01:03.991Z,97572.14
2019-05-10T19:03:43.401Z,97572.98
2019-05-10T19:06:19.239Z,97577.82
2019-05-10T19:08:55.736Z,97579.33
2019-05-10T19:11:38.879Z,97582.39
2019-05-10T19:14:09.044Z,97584.13
2019-05-10T19:16:40.094Z,97580.96
2019-05-10T19:19:13.541Z,97584.23
2019-05-10T19:22:18.235Z,97584.13
2019-05-10T19:24:56.192Z,97579.39
2019-05-10T19:27:25.472Z,97571.55
2019-05-10T19:29:57.336Z,97573.50
2019-05-10T19:32:30.306Z,97572.87
2019-05-10T19:35:01.223Z,97573.51
2019-05-10T19:37:34.754Z,97566.13
2019-05-10T19:40:08.556Z,97565.58
2019-05-10T19:42:43.073Z,97560.82
2019-05-10T19:45:18.994Z,97564.19
2019-05-10T19:47:49.806Z,97555.59
2019-05-10T19:50:18.680Z,97559.13
2019-05-10T19:52:49.793Z,97567.72
2019-05-10T19:55:23.532Z,97580.20
2019-05-10T19:57:56.513Z,97581.41
2019-05-10T20:00:28.975Z,97578.39
2019-05-10T20:02:59.089Z,97582.52
2019-05-10T20:05:30.407Z,97582.92
2019-05-10T20:08:01.421Z,97581.33
2019-05-10T20:10:32.495Z,97586.39
2019-05-10T20:13:03.428Z,97579.88
2019-05-10T20:15:34.576Z,97583.77
2019-05-10T20:18:06.116Z,97581.09
2019-05-10T20:20:37.855Z,97582.42
2019-05-10T20:23:08.763Z,97584.06
2019-05-10T20:25:50.963Z,97583.02
2019-05-10T20:28:26.909Z,97576.25
2019-05-10T20:30:58.072Z,97586.32
2019-05-10T20:33:28.951Z,97583.80
2019-05-10T20:36:01.835Z,97576.77
2019-05-10T20:38:32.740Z,97580.62
2019-05-10T20:41:02.879Z,97572.05
2019-05-10T20:43:34.152Z,97571.73
2019-05-10T20:46:07.132Z,97573.99
2019-05-10T20:48:37.776Z,97575.58
2019-05-10T20:51:08.638Z,97575.61
2019-05-10T20:53:40.689Z,97583.77
2019-05-10T20:56:11.590Z,97579.47
2019-05-10T20:58:42.724Z,97591.18
2019-05-10T21:01:13.799Z,97591.52
2019-05-10T21:03:44.920Z,97584.94
2019-05-10T21:06:18.821Z,97582.19
2019-05-10T21:08:49.834Z,97580.65
2019-05-10T21:11:20.902Z,97572.13
2019-05-10T21:13:51.990Z,97576.60
2019-05-10T21:16:24.430Z,97577.13
2019-05-10T21:18:54.712Z,97586.77
2019-05-10T21:21:25.798Z,97585.08
2019-05-10T21:23:56.708Z,97586.17
2019-05-10T21:26:27.765Z,97591.38
2019-05-10T21:28:58.784Z,97593.94
2019-05-10T21:31:29.807Z,97601.53
2019-05-10T21:34:09.431Z,97602.52
2019-05-10T21:36:33.476Z,97605.36
2019-05-10T21:39:06.792Z,97601.27
2019-05-10T21:41:37.988Z,97607.18
2019-05-10T21:44:08.831Z,97603.20
2019-05-10T21:46:39.908Z,97615.59
2019-05-10T21:49:10.800Z,97611.99
2019-05-10T21:51:40.912Z,97618.05
2019-05-10T21:54:12.146Z,97622.35
2019-05-10T21:56:42.971Z,97622.42
2019-05-10T21:59:15.239Z,97620.59
2019-05-10T22:01:46.205Z,97620.02
2019-05-10T22:04:17.341Z,97618.19
2019-05-10T22:06:50.369Z,97620.86
2019-05-10T22:09:21.502Z,97619.56
2019-05-10T22:11:52.372Z,97620.41
2019-05-10T22:14:23.424Z,97622.63
2019-05-10T22:16:54.762Z,97616.88
2019-05-10T22:19:25.753Z,97616.80
2019-05-10T22:21:56.589Z,97614.27
2019-05-10T22:24:26.702Z,97611.84
2019-05-10T22:27:00.461Z,97608.85
2019-05-10T22:29:31.376Z,97603.02
2019-05-10T22:32:02.591Z,97603.58
2019-05-10T22:34:33.455Z,97608.80
2019-05-10T22:37:04.549Z,97606.85
2019-05-10T22:39:35.435Z,97609.84
2019-05-10T22:42:06.777Z,97605.93
2019-05-10T22:44:37.633Z,97597.19
2019-05-10T22:47:08.629Z,97590.59
2019-05-10T22:49:39.506Z,97593.20
2019-05-10T22:52:10.630Z,97584.23
2019-05-10T22:54:41.583Z,97580.57
2019-05-10T22:57:11.663Z,97570.29
2019-05-10T22:59:44.735Z,97564.64
2019-05-10T23:02:15.695Z,97561.72
2019-05-10T23:04:48.271Z,97557.98
2019-05-10T23:07:19.184Z,97554.37
2019-05-10T23:09:50.253Z,97558.61
2019-05-10T23:12:21.153Z,97553.09
2019-05-10T23:14:52.342Z,97542.66
2019-05-10T23:17:23.420Z,97542.15
2019-05-10T23:19:54.603Z,97532.76
2019-05-10T23:22:25.498Z,97532.91
2019-05-10T23:24:56.761Z,97539.67
2019-05-10T23:27:27.680Z,97542.42
2019-05-10T23:29:58.819Z,97537.91
2019-05-10T23:32:31.215Z,97528.88
2019-05-10T23:35:04.579Z,97533.63
2019-05-10T23:37:35.907Z,97535.11
2019-05-10T23:40:07.171Z,97527.85
2019-05-10T23:42:38.142Z,97532.81
2019-05-10T23:45:09.501Z,97536.25
2019-05-10T23:47:40.936Z,97529.52
2019-05-10T23:50:12.051Z,97525.16
2019-05-10T23:52:43.161Z,97522.24
2019-05-10T23:55:14.315Z,97522.77
2019-05-10T23:57:45.379Z,97495.23
